sensor_id;sensor_type;location;lat;lon;timestamp;temperature;humidity
4324;DHT22;2175;51.018;6.994;2023-04-21T00:01:58;8.60;99.90
4324;DHT22;2175;51.018;6.994;2023-04-21T00:04:24;8.50;99.90
4324;DHT22;2175;51.018;6.994;2023-04-21T00:06:49;8.50;99.90
4324;DHT22;2175;51.018;6.994;2023-04-21T00:09:17;8.60;99.90
4324;DHT22;2175;51.018;6.994;2023-04-21T00:11:43;8.60;99.90
4324;DHT22;2175;51.018;6.994;2023-04-21T00:14:08;8.60;99.90
4324;DHT22;2175;51.018;6.994;2023-04-21T00:16:34;8.60;99.90
4324;DHT22;2175;51.018;6.994;2023-04-21T00:19:00;8.60;99.90
4324;DHT22;2175;51.018;6.994;2023-04-21T00:21:27;8.60;99.90
4324;DHT22;2175;51.018;6.994;2023-04-21T00:23:52;8.60;99.90
4324;DHT22;2175;51.018;6.994;2023-04-21T00:26:18;8.60;99.90
4324;DHT22;2175;51.018;6.994;2023-04-21T00:28:45;8.60;99.90
4324;DHT22;2175;51.018;6.994;2023-04-21T00:31:10;8.60;99.90
4324;DHT22;2175;51.018;6.994;2023-04-21T00:33:36;8.70;99.90
4324;DHT22;2175;51.018;6.994;2023-04-21T00:36:02;8.70;99.90
4324;DHT22;2175;51.018;6.994;2023-04-21T00:38:27;8.60;99.90
4324;DHT22;2175;51.018;6.994;2023-04-21T00:40:53;8.60;99.90
4324;DHT22;2175;51.018;6.994;2023-04-21T00:43:19;8.60;99.90
4324;DHT22;2175;51.018;6.994;2023-04-21T00:45:45;8.60;99.90
4324;DHT22;2175;51.018;6.994;2023-04-21T00:48:14;8.60;99.90
4324;DHT22;2175;51.018;6.994;2023-04-21T00:50:39;8.60;99.90
4324;DHT22;2175;51.018;6.994;2023-04-21T00:53:06;8.70;99.90
4324;DHT22;2175;51.018;6.994;2023-04-21T00:55:31;8.60;99.90
4324;DHT22;2175;51.018;6.994;2023-04-21T00:57:57;8.60;99.90
4324;DHT22;2175;51.018;6.994;2023-04-21T01:00:23;8.60;99.90
4324;DHT22;2175;51.018;6.994;2023-04-21T01:02:48;8.60;99.90
4324;DHT22;2175;51.018;6.994;2023-04-21T01:05:14;8.60;99.90
4324;DHT22;2175;51.018;6.994;2023-04-21T01:07:41;8.60;99.90
4324;DHT22;2175;51.018;6.994;2023-04-21T01:10:08;8.70;99.90
4324;DHT22;2175;51.018;6.994;2023-04-21T01:12:44;8.50;99.90
4324;DHT22;2175;51.018;6.994;2023-04-21T01:15:11;8.50;99.90
4324;DHT22;2175;51.018;6.994;2023-04-21T01:17:37;8.50;99.90
4324;DHT22;2175;51.018;6.994;2023-04-21T01:20:13;8.40;99.90
4324;DHT22;2175;51.018;6.994;2023-04-21T01:22:40;8.40;99.90
4324;DHT22;2175;51.018;6.994;2023-04-21T01:25:07;8.40;99.90
4324;DHT22;2175;51.018;6.994;2023-04-21T01:27:33;8.50;99.90
4324;DHT22;2175;51.018;6.994;2023-04-21T01:29:59;8.40;99.90
4324;DHT22;2175;51.018;6.994;2023-04-21T01:32:27;8.40;99.90
4324;DHT22;2175;51.018;6.994;2023-04-21T01:34:54;8.50;99.90
4324;DHT22;2175;51.018;6.994;2023-04-21T01:37:23;8.50;99.90
4324;DHT22;2175;51.018;6.994;2023-04-21T01:39:52;8.50;99.90
4324;DHT22;2175;51.018;6.994;2023-04-21T01:42:21;8.50;99.90
4324;DHT22;2175;51.018;6.994;2023-04-21T01:44:47;8.50;99.90
4324;DHT22;2175;51.018;6.994;2023-04-21T01:47:15;8.50;99.90
4324;DHT22;2175;51.018;6.994;2023-04-21T01:49:40;8.60;99.90
4324;DHT22;2175;51.018;6.994;2023-04-21T01:52:06;8.60;99.90
4324;DHT22;2175;51.018;6.994;2023-04-21T01:54:32;8.60;99.90
4324;DHT22;2175;51.018;6.994;2023-04-21T01:56:57;8.60;99.90
4324;DHT22;2175;51.018;6.994;2023-04-21T01:59:23;8.60;99.90
4324;DHT22;2175;51.018;6.994;2023-04-21T02:01:49;8.60;99.90
4324;DHT22;2175;51.018;6.994;2023-04-21T02:04:15;8.60;99.90
4324;DHT22;2175;51.018;6.994;2023-04-21T02:06:40;8.60;99.90
4324;DHT22;2175;51.018;6.994;2023-04-21T02:09:06;8.60;99.90
4324;DHT22;2175;51.018;6.994;2023-04-21T02:11:32;8.50;99.90
4324;DHT22;2175;51.018;6.994;2023-04-21T02:13:57;8.60;99.90
4324;DHT22;2175;51.018;6.994;2023-04-21T02:16:23;8.60;99.90
4324;DHT22;2175;51.018;6.994;2023-04-21T02:18:51;8.70;99.90
4324;DHT22;2175;51.018;6.994;2023-04-21T02:21:18;8.60;99.90
4324;DHT22;2175;51.018;6.994;2023-04-21T02:23:45;8.60;99.90
4324;DHT22;2175;51.018;6.994;2023-04-21T02:26:10;8.60;99.90
4324;DHT22;2175;51.018;6.994;2023-04-21T02:28:36;8.60;99.90
4324;DHT22;2175;51.018;6.994;2023-04-21T02:31:01;8.50;99.90
4324;DHT22;2175;51.018;6.994;2023-04-21T02:33:27;8.30;99.90
4324;DHT22;2175;51.018;6.994;2023-04-21T02:35:53;8.40;99.90
4324;DHT22;2175;51.018;6.994;2023-04-21T02:38:18;8.30;99.90
4324;DHT22;2175;51.018;6.994;2023-04-21T02:40:44;8.40;99.90
4324;DHT22;2175;51.018;6.994;2023-04-21T02:43:09;8.40;99.90
4324;DHT22;2175;51.018;6.994;2023-04-21T02:45:37;8.30;99.90
4324;DHT22;2175;51.018;6.994;2023-04-21T02:48:02;8.30;99.90
4324;DHT22;2175;51.018;6.994;2023-04-21T02:50:28;8.30;99.90
4324;DHT22;2175;51.018;6.994;2023-04-21T02:52:53;8.30;99.90
4324;DHT22;2175;51.018;6.994;2023-04-21T02:55:19;8.30;99.90
4324;DHT22;2175;51.018;6.994;2023-04-21T02:57:47;8.10;99.90
4324;DHT22;2175;51.018;6.994;2023-04-21T03:00:13;8.10;99.90
4324;DHT22;2175;51.018;6.994;2023-04-21T03:02:39;8.20;99.90
4324;DHT22;2175;51.018;6.994;2023-04-21T03:05:05;8.10;99.90
4324;DHT22;2175;51.018;6.994;2023-04-21T03:07:31;8.10;99.90
4324;DHT22;2175;51.018;6.994;2023-04-21T03:09:57;8.00;99.90
4324;DHT22;2175;51.018;6.994;2023-04-21T03:12:22;8.00;99.90
4324;DHT22;2175;51.018;6.994;2023-04-21T03:14:48;8.00;99.90
4324;DHT22;2175;51.018;6.994;2023-04-21T03:17:14;8.00;99.90
4324;DHT22;2175;51.018;6.994;2023-04-21T03:19:39;8.00;99.90
4324;DHT22;2175;51.018;6.994;2023-04-21T03:22:05;8.00;99.90
4324;DHT22;2175;51.018;6.994;2023-04-21T03:24:31;7.90;99.90
4324;DHT22;2175;51.018;6.994;2023-04-21T03:26:57;7.80;99.90
4324;DHT22;2175;51.018;6.994;2023-04-21T03:29:23;7.70;99.90
4324;DHT22;2175;51.018;6.994;2023-04-21T03:31:48;7.70;99.90
4324;DHT22;2175;51.018;6.994;2023-04-21T03:34:14;7.70;99.90
4324;DHT22;2175;51.018;6.994;2023-04-21T03:36:40;7.60;99.90
4324;DHT22;2175;51.018;6.994;2023-04-21T03:39:06;7.60;99.90
4324;DHT22;2175;51.018;6.994;2023-04-21T03:41:35;7.50;99.90
4324;DHT22;2175;51.018;6.994;2023-04-21T03:44:00;7.40;99.90
4324;DHT22;2175;51.018;6.994;2023-04-21T03:46:26;7.40;99.90
4324;DHT22;2175;51.018;6.994;2023-04-21T03:48:52;7.30;99.90
4324;DHT22;2175;51.018;6.994;2023-04-21T03:51:17;7.40;99.90
4324;DHT22;2175;51.018;6.994;2023-04-21T03:53:43;7.40;99.90
4324;DHT22;2175;51.018;6.994;2023-04-21T03:56:08;7.50;99.90
4324;DHT22;2175;51.018;6.994;2023-04-21T03:58:34;7.50;99.90
4324;DHT22;2175;51.018;6.994;2023-04-21T04:01:00;7.40;99.90
4324;DHT22;2175;51.018;6.994;2023-04-21T04:03:26;7.30;99.90
4324;DHT22;2175;51.018;6.994;2023-04-21T04:05:51;7.10;99.90
4324;DHT22;2175;51.018;6.994;2023-04-21T04:08:17;7.20;99.90
4324;DHT22;2175;51.018;6.994;2023-04-21T04:10:43;7.20;99.90
4324;DHT22;2175;51.018;6.994;2023-04-21T04:13:09;7.20;99.90
4324;DHT22;2175;51.018;6.994;2023-04-21T04:15:34;7.10;99.90
4324;DHT22;2175;51.018;6.994;2023-04-21T04:18:00;7.20;99.90
4324;DHT22;2175;51.018;6.994;2023-04-21T04:20:26;7.20;99.90
4324;DHT22;2175;51.018;6.994;2023-04-21T04:22:52;7.20;99.90
4324;DHT22;2175;51.018;6.994;2023-04-21T04:25:18;7.20;99.90
4324;DHT22;2175;51.018;6.994;2023-04-21T04:27:43;7.20;99.90
4324;DHT22;2175;51.018;6.994;2023-04-21T04:30:10;7.20;99.90
4324;DHT22;2175;51.018;6.994;2023-04-21T04:32:36;7.20;99.90
4324;DHT22;2175;51.018;6.994;2023-04-21T04:35:05;7.30;99.90
4324;DHT22;2175;51.018;6.994;2023-04-21T04:37:31;7.20;99.90
4324;DHT22;2175;51.018;6.994;2023-04-21T04:39:59;7.10;99.90
4324;DHT22;2175;51.018;6.994;2023-04-21T04:42:24;7.10;99.90
4324;DHT22;2175;51.018;6.994;2023-04-21T04:44:55;7.20;99.90
4324;DHT22;2175;51.018;6.994;2023-04-21T04:47:22;7.20;99.90
4324;DHT22;2175;51.018;6.994;2023-04-21T04:49:47;7.00;99.90
4324;DHT22;2175;51.018;6.994;2023-04-21T04:52:13;7.10;99.90
4324;DHT22;2175;51.018;6.994;2023-04-21T04:54:38;6.90;99.90
4324;DHT22;2175;51.018;6.994;2023-04-21T04:57:04;6.80;99.90
4324;DHT22;2175;51.018;6.994;2023-04-21T04:59:30;6.80;99.90
4324;DHT22;2175;51.018;6.994;2023-04-21T05:01:56;6.90;99.90
4324;DHT22;2175;51.018;6.994;2023-04-21T05:04:21;7.10;99.90
4324;DHT22;2175;51.018;6.994;2023-04-21T05:06:50;7.20;99.90
4324;DHT22;2175;51.018;6.994;2023-04-21T05:09:16;7.20;99.90
4324;DHT22;2175;51.018;6.994;2023-04-21T05:11:41;7.30;99.90
4324;DHT22;2175;51.018;6.994;2023-04-21T05:14:07;7.30;99.90
4324;DHT22;2175;51.018;6.994;2023-04-21T05:16:33;7.40;99.90
4324;DHT22;2175;51.018;6.994;2023-04-21T05:19:02;7.50;99.90
4324;DHT22;2175;51.018;6.994;2023-04-21T05:21:28;7.50;99.90
4324;DHT22;2175;51.018;6.994;2023-04-21T05:23:58;7.60;99.90
4324;DHT22;2175;51.018;6.994;2023-04-21T05:26:25;7.60;99.90
4324;DHT22;2175;51.018;6.994;2023-04-21T05:28:52;7.60;99.90
4324;DHT22;2175;51.018;6.994;2023-04-21T05:31:18;7.50;99.90
4324;DHT22;2175;51.018;6.994;2023-04-21T05:33:43;7.50;99.90
4324;DHT22;2175;51.018;6.994;2023-04-21T05:36:09;7.50;99.90
4324;DHT22;2175;51.018;6.994;2023-04-21T05:38:36;7.50;99.90
4324;DHT22;2175;51.018;6.994;2023-04-21T05:41:02;7.40;99.90
4324;DHT22;2175;51.018;6.994;2023-04-21T05:43:28;7.50;99.90
4324;DHT22;2175;51.018;6.994;2023-04-21T05:45:54;7.50;99.90
4324;DHT22;2175;51.018;6.994;2023-04-21T05:48:20;7.50;99.90
4324;DHT22;2175;51.018;6.994;2023-04-21T05:50:46;7.50;99.90
4324;DHT22;2175;51.018;6.994;2023-04-21T05:53:11;7.50;99.90
4324;DHT22;2175;51.018;6.994;2023-04-21T05:55:37;7.50;99.90
4324;DHT22;2175;51.018;6.994;2023-04-21T05:58:02;7.60;99.90
4324;DHT22;2175;51.018;6.994;2023-04-21T06:00:28;7.50;99.90
4324;DHT22;2175;51.018;6.994;2023-04-21T06:02:54;7.60;99.90
4324;DHT22;2175;51.018;6.994;2023-04-21T06:05:20;7.70;99.90
4324;DHT22;2175;51.018;6.994;2023-04-21T06:07:47;7.60;99.90
4324;DHT22;2175;51.018;6.994;2023-04-21T06:10:13;7.70;99.90
4324;DHT22;2175;51.018;6.994;2023-04-21T06:12:39;7.80;99.90
4324;DHT22;2175;51.018;6.994;2023-04-21T06:15:05;7.90;99.90
4324;DHT22;2175;51.018;6.994;2023-04-21T06:17:31;8.00;99.90
4324;DHT22;2175;51.018;6.994;2023-04-21T06:19:57;8.00;99.90
4324;DHT22;2175;51.018;6.994;2023-04-21T06:22:24;8.00;99.90
4324;DHT22;2175;51.018;6.994;2023-04-21T06:24:50;8.00;99.90
4324;DHT22;2175;51.018;6.994;2023-04-21T06:27:17;8.00;99.90
4324;DHT22;2175;51.018;6.994;2023-04-21T06:29:43;8.10;99.90
4324;DHT22;2175;51.018;6.994;2023-04-21T06:32:10;8.20;99.90
4324;DHT22;2175;51.018;6.994;2023-04-21T06:34:36;8.40;99.90
4324;DHT22;2175;51.018;6.994;2023-04-21T06:37:02;8.50;99.90
4324;DHT22;2175;51.018;6.994;2023-04-21T06:39:27;8.40;99.90
4324;DHT22;2175;51.018;6.994;2023-04-21T06:41:53;8.60;99.90
4324;DHT22;2175;51.018;6.994;2023-04-21T06:44:19;8.70;99.90
4324;DHT22;2175;51.018;6.994;2023-04-21T06:46:45;8.80;99.90
4324;DHT22;2175;51.018;6.994;2023-04-21T06:49:12;8.90;99.90
4324;DHT22;2175;51.018;6.994;2023-04-21T06:51:37;8.90;99.90
4324;DHT22;2175;51.018;6.994;2023-04-21T06:54:03;9.10;99.90
4324;DHT22;2175;51.018;6.994;2023-04-21T06:56:29;9.20;99.90
4324;DHT22;2175;51.018;6.994;2023-04-21T06:58:55;9.20;99.90
4324;DHT22;2175;51.018;6.994;2023-04-21T07:01:21;9.20;99.90
4324;DHT22;2175;51.018;6.994;2023-04-21T07:03:49;9.30;99.90
4324;DHT22;2175;51.018;6.994;2023-04-21T07:06:15;9.40;99.90
4324;DHT22;2175;51.018;6.994;2023-04-21T07:08:40;9.60;99.90
4324;DHT22;2175;51.018;6.994;2023-04-21T07:11:06;9.80;99.90
4324;DHT22;2175;51.018;6.994;2023-04-21T07:13:32;9.90;99.90
4324;DHT22;2175;51.018;6.994;2023-04-21T07:15:57;9.90;99.90
4324;DHT22;2175;51.018;6.994;2023-04-21T07:18:23;10.10;99.90
4324;DHT22;2175;51.018;6.994;2023-04-21T07:20:49;10.10;99.90
4324;DHT22;2175;51.018;6.994;2023-04-21T07:23:15;10.20;99.90
4324;DHT22;2175;51.018;6.994;2023-04-21T07:25:41;10.20;99.90
4324;DHT22;2175;51.018;6.994;2023-04-21T07:28:06;10.30;99.90
4324;DHT22;2175;51.018;6.994;2023-04-21T07:30:32;10.50;99.90
4324;DHT22;2175;51.018;6.994;2023-04-21T07:32:58;10.70;99.90
4324;DHT22;2175;51.018;6.994;2023-04-21T07:35:24;10.80;99.90
4324;DHT22;2175;51.018;6.994;2023-04-21T07:37:50;10.70;99.90
4324;DHT22;2175;51.018;6.994;2023-04-21T07:40:15;10.50;99.90
4324;DHT22;2175;51.018;6.994;2023-04-21T07:42:41;10.50;99.90
4324;DHT22;2175;51.018;6.994;2023-04-21T07:45:06;10.60;99.90
4324;DHT22;2175;51.018;6.994;2023-04-21T07:47:33;10.40;99.90
4324;DHT22;2175;51.018;6.994;2023-04-21T07:49:58;10.40;99.90
4324;DHT22;2175;51.018;6.994;2023-04-21T07:52:24;10.50;99.90
4324;DHT22;2175;51.018;6.994;2023-04-21T07:54:50;10.40;99.90
4324;DHT22;2175;51.018;6.994;2023-04-21T07:57:16;10.40;99.90
4324;DHT22;2175;51.018;6.994;2023-04-21T07:59:42;10.80;99.90
4324;DHT22;2175;51.018;6.994;2023-04-21T08:02:08;12.00;99.90
4324;DHT22;2175;51.018;6.994;2023-04-21T08:04:33;12.60;99.90
4324;DHT22;2175;51.018;6.994;2023-04-21T08:06:59;13.20;99.90
4324;DHT22;2175;51.018;6.994;2023-04-21T08:09:26;13.50;99.90
4324;DHT22;2175;51.018;6.994;2023-04-21T08:11:51;13.70;99.90
4324;DHT22;2175;51.018;6.994;2023-04-21T08:14:18;12.90;99.90
4324;DHT22;2175;51.018;6.994;2023-04-21T08:16:43;12.40;99.90
4324;DHT22;2175;51.018;6.994;2023-04-21T08:19:09;12.10;99.90
4324;DHT22;2175;51.018;6.994;2023-04-21T08:21:35;12.00;99.90
4324;DHT22;2175;51.018;6.994;2023-04-21T08:24:01;12.00;99.90
4324;DHT22;2175;51.018;6.994;2023-04-21T08:26:28;11.70;99.90
4324;DHT22;2175;51.018;6.994;2023-04-21T08:28:56;11.80;99.90
4324;DHT22;2175;51.018;6.994;2023-04-21T08:31:23;11.80;99.90
4324;DHT22;2175;51.018;6.994;2023-04-21T08:33:49;11.70;99.90
4324;DHT22;2175;51.018;6.994;2023-04-21T08:36:14;11.60;99.90
4324;DHT22;2175;51.018;6.994;2023-04-21T08:38:43;11.80;99.90
4324;DHT22;2175;51.018;6.994;2023-04-21T08:41:12;12.00;99.90
4324;DHT22;2175;51.018;6.994;2023-04-21T08:43:38;12.10;99.90
4324;DHT22;2175;51.018;6.994;2023-04-21T08:46:07;12.20;99.90
4324;DHT22;2175;51.018;6.994;2023-04-21T08:48:36;12.60;99.90
4324;DHT22;2175;51.018;6.994;2023-04-21T08:51:02;12.80;99.90
4324;DHT22;2175;51.018;6.994;2023-04-21T08:53:31;12.80;99.90
4324;DHT22;2175;51.018;6.994;2023-04-21T08:55:57;13.30;99.90
4324;DHT22;2175;51.018;6.994;2023-04-21T08:58:23;13.00;99.90
4324;DHT22;2175;51.018;6.994;2023-04-21T09:00:49;13.50;99.90
4324;DHT22;2175;51.018;6.994;2023-04-21T09:03:25;14.20;99.90
4324;DHT22;2175;51.018;6.994;2023-04-21T09:06:04;14.90;99.90
4324;DHT22;2175;51.018;6.994;2023-04-21T09:08:30;15.30;99.90
4324;DHT22;2175;51.018;6.994;2023-04-21T09:10:57;15.10;99.90
4324;DHT22;2175;51.018;6.994;2023-04-21T09:13:34;14.30;99.90
4324;DHT22;2175;51.018;6.994;2023-04-21T09:16:02;13.70;99.90
4324;DHT22;2175;51.018;6.994;2023-04-21T09:18:29;13.50;99.90
4324;DHT22;2175;51.018;6.994;2023-04-21T09:21:07;14.20;99.90
4324;DHT22;2175;51.018;6.994;2023-04-21T09:23:49;15.40;99.90
4324;DHT22;2175;51.018;6.994;2023-04-21T09:26:18;15.90;99.90
4324;DHT22;2175;51.018;6.994;2023-04-21T09:28:45;16.70;99.90
4324;DHT22;2175;51.018;6.994;2023-04-21T09:31:16;17.00;99.90
4324;DHT22;2175;51.018;6.994;2023-04-21T09:33:50;16.20;99.90
4324;DHT22;2175;51.018;6.994;2023-04-21T09:36:24;16.00;99.90
4324;DHT22;2175;51.018;6.994;2023-04-21T09:41:19;16.00;99.90
4324;DHT22;2175;51.018;6.994;2023-04-21T09:43:45;16.20;99.90
4324;DHT22;2175;51.018;6.994;2023-04-21T09:46:11;15.90;99.90
4324;DHT22;2175;51.018;6.994;2023-04-21T09:48:43;16.10;99.90
4324;DHT22;2175;51.018;6.994;2023-04-21T09:51:11;16.50;99.90
4324;DHT22;2175;51.018;6.994;2023-04-21T09:53:39;16.30;99.90
4324;DHT22;2175;51.018;6.994;2023-04-21T09:56:10;16.10;99.90
4324;DHT22;2175;51.018;6.994;2023-04-21T09:58:40;15.90;99.90
4324;DHT22;2175;51.018;6.994;2023-04-21T10:01:08;15.90;99.90
4324;DHT22;2175;51.018;6.994;2023-04-21T10:03:38;16.20;99.90
4324;DHT22;2175;51.018;6.994;2023-04-21T10:06:05;16.90;99.90
4324;DHT22;2175;51.018;6.994;2023-04-21T10:08:32;17.80;99.90
4324;DHT22;2175;51.018;6.994;2023-04-21T10:10:58;18.20;99.90
4324;DHT22;2175;51.018;6.994;2023-04-21T10:13:25;18.40;99.90
4324;DHT22;2175;51.018;6.994;2023-04-21T10:16:09;18.10;99.90
4324;DHT22;2175;51.018;6.994;2023-04-21T10:18:43;18.00;99.90
4324;DHT22;2175;51.018;6.994;2023-04-21T10:21:10;17.50;99.90
4324;DHT22;2175;51.018;6.994;2023-04-21T10:23:43;17.30;99.90
4324;DHT22;2175;51.018;6.994;2023-04-21T10:26:20;17.60;99.90
4324;DHT22;2175;51.018;6.994;2023-04-21T10:28:56;17.20;99.90
4324;DHT22;2175;51.018;6.994;2023-04-21T10:36:50;16.30;99.90
4324;DHT22;2175;51.018;6.994;2023-04-21T10:39:30;16.10;99.90
4324;DHT22;2175;51.018;6.994;2023-04-21T10:42:22;16.00;99.90
4324;DHT22;2175;51.018;6.994;2023-04-21T10:47:45;16.40;99.90
4324;DHT22;2175;51.018;6.994;2023-04-21T10:50:18;16.80;99.90
4324;DHT22;2175;51.018;6.994;2023-04-21T10:52:46;17.20;99.90
4324;DHT22;2175;51.018;6.994;2023-04-21T10:55:16;17.40;99.90
4324;DHT22;2175;51.018;6.994;2023-04-21T10:57:43;18.00;99.90
4324;DHT22;2175;51.018;6.994;2023-04-21T11:00:11;18.10;99.90
4324;DHT22;2175;51.018;6.994;2023-04-21T11:02:38;18.00;99.90
4324;DHT22;2175;51.018;6.994;2023-04-21T11:05:04;17.70;99.90
4324;DHT22;2175;51.018;6.994;2023-04-21T11:07:30;17.70;99.90
4324;DHT22;2175;51.018;6.994;2023-04-21T11:12:30;18.20;99.90
4324;DHT22;2175;51.018;6.994;2023-04-21T11:14:56;18.70;99.90
4324;DHT22;2175;51.018;6.994;2023-04-21T11:17:23;18.80;99.90
4324;DHT22;2175;51.018;6.994;2023-04-21T11:19:58;18.60;99.90
4324;DHT22;2175;51.018;6.994;2023-04-21T11:22:25;18.30;99.90
4324;DHT22;2175;51.018;6.994;2023-04-21T11:24:54;17.80;99.90
4324;DHT22;2175;51.018;6.994;2023-04-21T11:27:27;17.60;99.90
4324;DHT22;2175;51.018;6.994;2023-04-21T11:29:54;17.70;99.90
4324;DHT22;2175;51.018;6.994;2023-04-21T11:32:20;17.70;99.90
4324;DHT22;2175;51.018;6.994;2023-04-21T11:34:46;18.10;99.90
4324;DHT22;2175;51.018;6.994;2023-04-21T11:37:23;18.30;99.90
4324;DHT22;2175;51.018;6.994;2023-04-21T11:39:56;18.30;99.90
4324;DHT22;2175;51.018;6.994;2023-04-21T11:42:22;18.40;99.90
4324;DHT22;2175;51.018;6.994;2023-04-21T11:44:48;18.80;99.90
4324;DHT22;2175;51.018;6.994;2023-04-21T11:47:14;18.90;99.90
4324;DHT22;2175;51.018;6.994;2023-04-21T11:50:07;19.00;99.90
4324;DHT22;2175;51.018;6.994;2023-04-21T11:52:35;19.00;99.90
4324;DHT22;2175;51.018;6.994;2023-04-21T11:55:10;19.10;99.90
4324;DHT22;2175;51.018;6.994;2023-04-21T11:57:38;19.00;99.90
4324;DHT22;2175;51.018;6.994;2023-04-21T12:00:07;18.90;99.90
4324;DHT22;2175;51.018;6.994;2023-04-21T12:02:33;18.30;99.90
4324;DHT22;2175;51.018;6.994;2023-04-21T12:07:37;18.20;99.90
4324;DHT22;2175;51.018;6.994;2023-04-21T12:10:11;17.80;99.90
4324;DHT22;2175;51.018;6.994;2023-04-21T12:12:38;17.50;99.90
4324;DHT22;2175;51.018;6.994;2023-04-21T12:15:09;17.60;99.90
4324;DHT22;2175;51.018;6.994;2023-04-21T12:17:54;17.90;99.90
4324;DHT22;2175;51.018;6.994;2023-04-21T12:20:22;18.10;99.90
4324;DHT22;2175;51.018;6.994;2023-04-21T12:22:48;18.20;99.90
4324;DHT22;2175;51.018;6.994;2023-04-21T12:25:14;18.20;99.90
4324;DHT22;2175;51.018;6.994;2023-04-21T12:27:56;18.10;99.90
4324;DHT22;2175;51.018;6.994;2023-04-21T12:30:22;17.90;99.90
4324;DHT22;2175;51.018;6.994;2023-04-21T12:32:48;18.20;99.90
4324;DHT22;2175;51.018;6.994;2023-04-21T12:35:16;17.60;99.90
4324;DHT22;2175;51.018;6.994;2023-04-21T12:37:43;17.40;99.90
4324;DHT22;2175;51.018;6.994;2023-04-21T12:40:09;17.10;99.90
4324;DHT22;2175;51.018;6.994;2023-04-21T12:42:35;17.10;99.90
4324;DHT22;2175;51.018;6.994;2023-04-21T12:45:00;17.10;99.90
4324;DHT22;2175;51.018;6.994;2023-04-21T12:47:26;17.10;99.90
4324;DHT22;2175;51.018;6.994;2023-04-21T12:49:52;17.10;99.90
4324;DHT22;2175;51.018;6.994;2023-04-21T12:52:18;17.40;99.90
4324;DHT22;2175;51.018;6.994;2023-04-21T12:54:44;17.70;99.90
4324;DHT22;2175;51.018;6.994;2023-04-21T12:57:09;17.90;99.90
4324;DHT22;2175;51.018;6.994;2023-04-21T12:59:35;18.00;99.90
4324;DHT22;2175;51.018;6.994;2023-04-21T13:02:01;18.20;99.90
4324;DHT22;2175;51.018;6.994;2023-04-21T13:04:27;18.30;99.90
4324;DHT22;2175;51.018;6.994;2023-04-21T13:06:53;18.50;99.90
4324;DHT22;2175;51.018;6.994;2023-04-21T13:09:19;18.40;99.90
4324;DHT22;2175;51.018;6.994;2023-04-21T13:11:44;18.40;99.90
4324;DHT22;2175;51.018;6.994;2023-04-21T13:14:10;18.40;99.90
4324;DHT22;2175;51.018;6.994;2023-04-21T13:16:35;18.20;99.90
4324;DHT22;2175;51.018;6.994;2023-04-21T13:19:01;18.00;99.90
4324;DHT22;2175;51.018;6.994;2023-04-21T13:21:28;18.00;99.90
4324;DHT22;2175;51.018;6.994;2023-04-21T13:23:53;18.10;99.90
4324;DHT22;2175;51.018;6.994;2023-04-21T13:26:20;18.30;99.90
4324;DHT22;2175;51.018;6.994;2023-04-21T13:28:46;18.20;99.90
4324;DHT22;2175;51.018;6.994;2023-04-21T13:31:11;18.10;99.90
4324;DHT22;2175;51.018;6.994;2023-04-21T13:33:39;18.00;99.90
4324;DHT22;2175;51.018;6.994;2023-04-21T13:36:05;17.60;99.90
4324;DHT22;2175;51.018;6.994;2023-04-21T13:38:31;17.40;99.90
4324;DHT22;2175;51.018;6.994;2023-04-21T13:40:57;17.50;99.90
4324;DHT22;2175;51.018;6.994;2023-04-21T13:43:23;17.50;99.90
4324;DHT22;2175;51.018;6.994;2023-04-21T13:45:48;17.70;99.90
4324;DHT22;2175;51.018;6.994;2023-04-21T13:48:19;17.70;99.90
4324;DHT22;2175;51.018;6.994;2023-04-21T13:50:45;17.70;99.90
4324;DHT22;2175;51.018;6.994;2023-04-21T13:53:11;17.70;99.90
4324;DHT22;2175;51.018;6.994;2023-04-21T13:55:41;17.80;99.90
4324;DHT22;2175;51.018;6.994;2023-04-21T13:58:08;17.90;99.90
4324;DHT22;2175;51.018;6.994;2023-04-21T14:00:33;18.00;99.90
4324;DHT22;2175;51.018;6.994;2023-04-21T14:02:59;18.10;99.90
4324;DHT22;2175;51.018;6.994;2023-04-21T14:05:24;18.10;99.90
4324;DHT22;2175;51.018;6.994;2023-04-21T14:07:50;18.20;99.90
4324;DHT22;2175;51.018;6.994;2023-04-21T14:10:16;18.30;99.90
4324;DHT22;2175;51.018;6.994;2023-04-21T14:12:41;18.30;99.90
4324;DHT22;2175;51.018;6.994;2023-04-21T14:15:10;18.30;99.90
4324;DHT22;2175;51.018;6.994;2023-04-21T14:17:36;18.20;99.90
4324;DHT22;2175;51.018;6.994;2023-04-21T14:20:01;18.30;99.90
4324;DHT22;2175;51.018;6.994;2023-04-21T14:22:28;18.40;99.90
4324;DHT22;2175;51.018;6.994;2023-04-21T14:24:54;18.40;99.90
4324;DHT22;2175;51.018;6.994;2023-04-21T14:27:20;18.20;99.90
4324;DHT22;2175;51.018;6.994;2023-04-21T14:29:45;18.00;99.90
4324;DHT22;2175;51.018;6.994;2023-04-21T14:32:11;18.00;99.90
4324;DHT22;2175;51.018;6.994;2023-04-21T14:34:37;18.20;99.90
4324;DHT22;2175;51.018;6.994;2023-04-21T14:37:02;18.20;99.90
4324;DHT22;2175;51.018;6.994;2023-04-21T14:39:28;18.20;99.90
4324;DHT22;2175;51.018;6.994;2023-04-21T14:41:54;18.30;99.90
4324;DHT22;2175;51.018;6.994;2023-04-21T14:44:19;18.10;99.90
4324;DHT22;2175;51.018;6.994;2023-04-21T14:46:45;18.10;99.90
4324;DHT22;2175;51.018;6.994;2023-04-21T14:49:11;18.30;99.90
4324;DHT22;2175;51.018;6.994;2023-04-21T14:51:37;18.40;99.90
4324;DHT22;2175;51.018;6.994;2023-04-21T14:54:06;18.50;99.90
4324;DHT22;2175;51.018;6.994;2023-04-21T14:56:32;18.50;99.90
4324;DHT22;2175;51.018;6.994;2023-04-21T14:58:58;18.50;99.90
4324;DHT22;2175;51.018;6.994;2023-04-21T15:01:24;18.50;99.90
4324;DHT22;2175;51.018;6.994;2023-04-21T15:03:49;18.50;99.90
4324;DHT22;2175;51.018;6.994;2023-04-21T15:06:15;18.60;99.90
4324;DHT22;2175;51.018;6.994;2023-04-21T15:08:41;18.70;99.90
4324;DHT22;2175;51.018;6.994;2023-04-21T15:11:06;18.90;99.90
4324;DHT22;2175;51.018;6.994;2023-04-21T15:13:32;19.00;99.90
4324;DHT22;2175;51.018;6.994;2023-04-21T15:15:58;18.90;99.90
4324;DHT22;2175;51.018;6.994;2023-04-21T15:18:23;18.70;99.90
4324;DHT22;2175;51.018;6.994;2023-04-21T15:20:49;18.30;99.90
4324;DHT22;2175;51.018;6.994;2023-04-21T15:23:15;18.00;99.90
4324;DHT22;2175;51.018;6.994;2023-04-21T15:25:41;17.80;99.90
4324;DHT22;2175;51.018;6.994;2023-04-21T15:28:07;17.70;99.90
4324;DHT22;2175;51.018;6.994;2023-04-21T15:30:33;17.60;99.90
4324;DHT22;2175;51.018;6.994;2023-04-21T15:32:59;17.60;99.90
4324;DHT22;2175;51.018;6.994;2023-04-21T15:35:25;17.60;99.90
4324;DHT22;2175;51.018;6.994;2023-04-21T15:37:51;17.60;99.90
4324;DHT22;2175;51.018;6.994;2023-04-21T15:40:17;17.70;99.90
4324;DHT22;2175;51.018;6.994;2023-04-21T15:42:42;17.60;99.90
4324;DHT22;2175;51.018;6.994;2023-04-21T15:45:11;17.60;99.90
4324;DHT22;2175;51.018;6.994;2023-04-21T15:47:36;17.60;99.90
4324;DHT22;2175;51.018;6.994;2023-04-21T15:50:02;17.80;99.90
4324;DHT22;2175;51.018;6.994;2023-04-21T15:52:28;17.90;99.90
4324;DHT22;2175;51.018;6.994;2023-04-21T15:54:54;18.00;99.90
4324;DHT22;2175;51.018;6.994;2023-04-21T15:57:20;18.00;99.90
4324;DHT22;2175;51.018;6.994;2023-04-21T15:59:46;18.10;99.90
4324;DHT22;2175;51.018;6.994;2023-04-21T16:02:11;18.10;99.90
4324;DHT22;2175;51.018;6.994;2023-04-21T16:04:37;18.20;99.90
4324;DHT22;2175;51.018;6.994;2023-04-21T16:07:03;18.20;99.90
4324;DHT22;2175;51.018;6.994;2023-04-21T16:09:28;18.10;99.90
4324;DHT22;2175;51.018;6.994;2023-04-21T16:11:54;17.90;99.90
4324;DHT22;2175;51.018;6.994;2023-04-21T16:14:21;17.80;99.90
4324;DHT22;2175;51.018;6.994;2023-04-21T16:16:46;17.80;99.90
4324;DHT22;2175;51.018;6.994;2023-04-21T16:19:12;17.70;99.90
4324;DHT22;2175;51.018;6.994;2023-04-21T16:21:37;17.60;99.90
4324;DHT22;2175;51.018;6.994;2023-04-21T16:24:05;17.40;99.90